sensor_id;sensor_type;location;lat;lon;timestamp;temperature;humidity
76040;SHT30;64736;50.462;4.850;2022-12-26T00:02:13;11.87;88.24
76040;SHT30;64736;50.462;4.850;2022-12-26T00:04:39;11.86;88.33
76040;SHT30;64736;50.462;4.850;2022-12-26T00:07:04;11.85;88.51
76040;SHT30;64736;50.462;4.850;2022-12-26T00:09:32;11.86;88.20
76040;SHT30;64736;50.462;4.850;2022-12-26T00:11:58;11.86;88.63
76040;SHT30;64736;50.462;4.850;2022-12-26T00:14:24;11.83;88.67
76040;SHT30;64736;50.462;4.850;2022-12-26T00:16:49;11.85;88.24
76040;SHT30;64736;50.462;4.850;2022-12-26T00:19:15;11.86;87.93
76040;SHT30;64736;50.462;4.850;2022-12-26T00:21:41;11.85;87.93
76040;SHT30;64736;50.462;4.850;2022-12-26T00:24:09;11.83;88.29
76040;SHT30;64736;50.462;4.850;2022-12-26T00:26:36;11.85;88.45
76040;SHT30;64736;50.462;4.850;2022-12-26T00:29:02;11.82;88.34
76040;SHT30;64736;50.462;4.850;2022-12-26T00:31:31;11.82;88.00
76040;SHT30;64736;50.462;4.850;2022-12-26T00:33:58;11.90;87.53
76040;SHT30;64736;50.462;4.850;2022-12-26T00:36:26;11.91;87.23
76040;SHT30;64736;50.462;4.850;2022-12-26T00:38:56;11.90;87.76
76040;SHT30;64736;50.462;4.850;2022-12-26T00:41:22;11.90;87.58
76040;SHT30;64736;50.462;4.850;2022-12-26T00:43:48;11.93;87.17
76040;SHT30;64736;50.462;4.850;2022-12-26T00:46:15;11.94;87.53
76040;SHT30;64736;50.462;4.850;2022-12-26T00:48:41;11.98;87.63
76040;SHT30;64736;50.462;4.850;2022-12-26T00:51:07;11.91;88.05
76040;SHT30;64736;50.462;4.850;2022-12-26T00:53:33;11.86;87.84
76040;SHT30;64736;50.462;4.850;2022-12-26T00:56:00;11.94;87.48
76040;SHT30;64736;50.462;4.850;2022-12-26T00:58:26;11.89;87.53
76040;SHT30;64736;50.462;4.850;2022-12-26T01:00:52;11.90;87.48
76040;SHT30;64736;50.462;4.850;2022-12-26T01:03:18;11.89;87.41
76040;SHT30;64736;50.462;4.850;2022-12-26T01:05:46;11.87;87.01
76040;SHT30;64736;50.462;4.850;2022-12-26T01:08:13;11.85;87.39
76040;SHT30;64736;50.462;4.850;2022-12-26T01:10:43;11.89;86.99
76040;SHT30;64736;50.462;4.850;2022-12-26T01:13:10;11.91;86.33
76040;SHT30;64736;50.462;4.850;2022-12-26T01:15:36;11.94;86.38
76040;SHT30;64736;50.462;4.850;2022-12-26T01:18:02;11.96;86.39
76040;SHT30;64736;50.462;4.850;2022-12-26T01:20:28;11.90;86.94
76040;SHT30;64736;50.462;4.850;2022-12-26T01:22:54;11.90;87.01
76040;SHT30;64736;50.462;4.850;2022-12-26T01:25:20;11.89;87.19
76040;SHT30;64736;50.462;4.850;2022-12-26T01:27:46;11.86;86.98
76040;SHT30;64736;50.462;4.850;2022-12-26T01:30:12;11.90;86.99
76040;SHT30;64736;50.462;4.850;2022-12-26T01:32:38;11.90;87.04
76040;SHT30;64736;50.462;4.850;2022-12-26T01:35:04;11.90;87.40
76040;SHT30;64736;50.462;4.850;2022-12-26T01:37:30;11.90;87.17
76040;SHT30;64736;50.462;4.850;2022-12-26T01:39:56;11.91;86.92
76040;SHT30;64736;50.462;4.850;2022-12-26T01:42:24;11.89;87.03
76040;SHT30;64736;50.462;4.850;2022-12-26T01:45:28;11.86;87.47
76040;SHT30;64736;50.462;4.850;2022-12-26T01:48:17;11.83;87.57
76040;SHT30;64736;50.462;4.850;2022-12-26T01:53:26;11.82;88.08
76040;SHT30;64736;50.462;4.850;2022-12-26T01:55:59;11.82;88.59
76040;SHT30;64736;50.462;4.850;2022-12-26T01:58:30;11.79;88.57
76040;SHT30;64736;50.462;4.850;2022-12-26T02:01:10;11.76;88.17
76040;SHT30;64736;50.462;4.850;2022-12-26T02:03:38;11.73;89.02
76040;SHT30;64736;50.462;4.850;2022-12-26T02:06:24;11.65;89.50
76040;SHT30;64736;50.462;4.850;2022-12-26T02:08:50;11.55;91.49
76040;SHT30;64736;50.462;4.850;2022-12-26T02:13:48;11.34;92.67
76040;SHT30;64736;50.462;4.850;2022-12-26T02:16:15;11.28;92.31
76040;SHT30;64736;50.462;4.850;2022-12-26T02:18:41;11.28;92.12
76040;SHT30;64736;50.462;4.850;2022-12-26T02:32:14;11.28;92.70
76040;SHT30;64736;50.462;4.850;2022-12-26T02:38:11;11.29;92.49
76040;SHT30;64736;50.462;4.850;2022-12-26T02:40:55;11.27;92.44
76040;SHT30;64736;50.462;4.850;2022-12-26T02:51:58;11.34;92.23
76040;SHT30;64736;50.462;4.850;2022-12-26T02:54:57;11.35;92.33
76040;SHT30;64736;50.462;4.850;2022-12-26T02:57:53;11.35;92.40
76040;SHT30;64736;50.462;4.850;2022-12-26T03:00:42;11.36;92.18
76040;SHT30;64736;50.462;4.850;2022-12-26T03:03:35;11.35;92.17
76040;SHT30;64736;50.462;4.850;2022-12-26T03:06:24;11.39;92.15
76040;SHT30;64736;50.462;4.850;2022-12-26T03:09:24;11.39;92.02
76040;SHT30;64736;50.462;4.850;2022-12-26T03:12:41;11.36;91.98
76040;SHT30;64736;50.462;4.850;2022-12-26T03:15:30;11.36;92.16
76040;SHT30;64736;50.462;4.850;2022-12-26T03:18:17;11.34;92.39
76040;SHT30;64736;50.462;4.850;2022-12-26T03:20:44;11.22;93.32
76040;SHT30;64736;50.462;4.850;2022-12-26T03:23:15;11.22;92.94
76040;SHT30;64736;50.462;4.850;2022-12-26T03:25:55;11.19;93.10
76040;SHT30;64736;50.462;4.850;2022-12-26T03:28:41;11.19;92.66
76040;SHT30;64736;50.462;4.850;2022-12-26T03:31:10;11.18;92.52
76040;SHT30;64736;50.462;4.850;2022-12-26T03:33:42;11.18;93.03
76040;SHT30;64736;50.462;4.850;2022-12-26T03:49:28;10.57;96.73
76040;SHT30;64736;50.462;4.850;2022-12-26T04:00:58;10.43;96.96
76040;SHT30;64736;50.462;4.850;2022-12-26T04:03:46;10.41;96.91
76040;SHT30;64736;50.462;4.850;2022-12-26T04:06:44;10.35;96.61
76040;SHT30;64736;50.462;4.850;2022-12-26T04:09:43;10.35;96.66
76040;SHT30;64736;50.462;4.850;2022-12-26T04:12:29;10.33;97.03
76040;SHT30;64736;50.462;4.850;2022-12-26T04:15:28;10.25;96.90
76040;SHT30;64736;50.462;4.850;2022-12-26T04:18:20;10.21;97.26
76040;SHT30;64736;50.462;4.850;2022-12-26T04:21:11;9.99;98.07
76040;SHT30;64736;50.462;4.850;2022-12-26T04:24:08;9.85;98.19
76040;SHT30;64736;50.462;4.850;2022-12-26T04:26:58;9.78;98.39
76040;SHT30;64736;50.462;4.850;2022-12-26T04:29:45;9.73;98.70
76040;SHT30;64736;50.462;4.850;2022-12-26T04:32:49;9.61;99.02
76040;SHT30;64736;50.462;4.850;2022-12-26T04:35:56;9.54;99.25
76040;SHT30;64736;50.462;4.850;2022-12-26T04:38:48;9.48;99.19
76040;SHT30;64736;50.462;4.850;2022-12-26T04:41:35;9.46;99.21
76040;SHT30;64736;50.462;4.850;2022-12-26T04:44:21;9.40;99.04
76040;SHT30;64736;50.462;4.850;2022-12-26T04:46:50;9.37;99.14
76040;SHT30;64736;50.462;4.850;2022-12-26T04:49:17;9.39;99.22
76040;SHT30;64736;50.462;4.850;2022-12-26T04:52:05;9.37;99.26
76040;SHT30;64736;50.462;4.850;2022-12-26T04:54:31;9.36;99.12
76040;SHT30;64736;50.462;4.850;2022-12-26T04:56:57;9.33;98.75
76040;SHT30;64736;50.462;4.850;2022-12-26T04:59:23;9.35;98.80
76040;SHT30;64736;50.462;4.850;2022-12-26T05:01:49;9.37;98.86
76040;SHT30;64736;50.462;4.850;2022-12-26T05:04:33;9.32;98.49
76040;SHT30;64736;50.462;4.850;2022-12-26T05:07:29;9.36;98.61
76040;SHT30;64736;50.462;4.850;2022-12-26T05:10:21;9.37;98.45
76040;SHT30;64736;50.462;4.850;2022-12-26T05:12:47;9.42;98.64
76040;SHT30;64736;50.462;4.850;2022-12-26T05:15:13;9.35;98.28
76040;SHT30;64736;50.462;4.850;2022-12-26T05:17:39;9.35;98.17
76040;SHT30;64736;50.462;4.850;2022-12-26T05:20:23;9.33;98.22
76040;SHT30;64736;50.462;4.850;2022-12-26T05:23:18;9.33;98.08
76040;SHT30;64736;50.462;4.850;2022-12-26T05:26:05;9.39;98.35
76040;SHT30;64736;50.462;4.850;2022-12-26T05:28:57;9.39;98.23
76040;SHT30;64736;50.462;4.850;2022-12-26T05:31:24;9.36;98.10
76040;SHT30;64736;50.462;4.850;2022-12-26T05:33:49;9.39;98.04
76040;SHT30;64736;50.462;4.850;2022-12-26T05:36:44;9.44;98.17
76040;SHT30;64736;50.462;4.850;2022-12-26T05:39:10;9.47;98.17
76040;SHT30;64736;50.462;4.850;2022-12-26T05:41:37;9.50;97.77
76040;SHT30;64736;50.462;4.850;2022-12-26T05:44:03;9.56;97.98
76040;SHT30;64736;50.462;4.850;2022-12-26T05:46:29;9.57;97.92
76040;SHT30;64736;50.462;4.850;2022-12-26T05:48:55;9.57;98.01
76040;SHT30;64736;50.462;4.850;2022-12-26T05:51:21;9.61;97.73
76040;SHT30;64736;50.462;4.850;2022-12-26T05:53:47;9.61;97.71
76040;SHT30;64736;50.462;4.850;2022-12-26T05:56:15;9.60;97.77
76040;SHT30;64736;50.462;4.850;2022-12-26T05:58:41;9.64;97.64
76040;SHT30;64736;50.462;4.850;2022-12-26T06:01:13;9.66;97.62
76040;SHT30;64736;50.462;4.850;2022-12-26T06:03:40;9.66;97.42
76040;SHT30;64736;50.462;4.850;2022-12-26T06:06:08;9.70;97.41
76040;SHT30;64736;50.462;4.850;2022-12-26T06:08:35;9.71;97.26
76040;SHT30;64736;50.462;4.850;2022-12-26T06:11:10;9.74;97.14
76040;SHT30;64736;50.462;4.850;2022-12-26T06:13:37;9.77;97.09
76040;SHT30;64736;50.462;4.850;2022-12-26T06:16:04;9.77;96.76
76040;SHT30;64736;50.462;4.850;2022-12-26T06:18:31;9.80;96.71
76040;SHT30;64736;50.462;4.850;2022-12-26T06:20:57;9.80;96.51
76040;SHT30;64736;50.462;4.850;2022-12-26T06:23:23;9.78;96.42
76040;SHT30;64736;50.462;4.850;2022-12-26T06:25:55;9.80;96.28
76040;SHT30;64736;50.462;4.850;2022-12-26T06:28:22;9.84;95.95
76040;SHT30;64736;50.462;4.850;2022-12-26T06:30:49;9.87;95.88
76040;SHT30;64736;50.462;4.850;2022-12-26T06:33:15;9.90;95.68
76040;SHT30;64736;50.462;4.850;2022-12-26T06:35:41;9.87;95.49
76040;SHT30;64736;50.462;4.850;2022-12-26T06:38:08;9.91;95.29
76040;SHT30;64736;50.462;4.850;2022-12-26T06:40:38;9.91;94.97
76040;SHT30;64736;50.462;4.850;2022-12-26T06:43:04;9.93;95.15
76040;SHT30;64736;50.462;4.850;2022-12-26T06:45:30;9.93;94.86
76040;SHT30;64736;50.462;4.850;2022-12-26T06:47:56;9.94;94.77
76040;SHT30;64736;50.462;4.850;2022-12-26T06:50:23;9.99;94.14
76040;SHT30;64736;50.462;4.850;2022-12-26T06:52:49;9.95;94.59
76040;SHT30;64736;50.462;4.850;2022-12-26T06:55:15;9.94;94.67
76040;SHT30;64736;50.462;4.850;2022-12-26T06:57:40;9.98;94.11
76040;SHT30;64736;50.462;4.850;2022-12-26T07:00:07;9.98;94.65
76040;SHT30;64736;50.462;4.850;2022-12-26T07:02:33;9.98;94.55
76040;SHT30;64736;50.462;4.850;2022-12-26T07:04:58;9.95;94.35
76040;SHT30;64736;50.462;4.850;2022-12-26T07:07:24;9.93;94.34
76040;SHT30;64736;50.462;4.850;2022-12-26T07:09:50;9.99;94.22
76040;SHT30;64736;50.462;4.850;2022-12-26T07:12:16;9.94;94.13
76040;SHT30;64736;50.462;4.850;2022-12-26T07:14:45;9.98;93.54
76040;SHT30;64736;50.462;4.850;2022-12-26T07:17:11;9.97;93.65
76040;SHT30;64736;50.462;4.850;2022-12-26T07:19:37;9.94;93.66
76040;SHT30;64736;50.462;4.850;2022-12-26T07:22:03;9.95;93.42
76040;SHT30;64736;50.462;4.850;2022-12-26T07:24:28;9.87;94.04
76040;SHT30;64736;50.462;4.850;2022-12-26T07:26:54;9.87;93.58
76040;SHT30;64736;50.462;4.850;2022-12-26T07:29:20;9.87;93.62
76040;SHT30;64736;50.462;4.850;2022-12-26T07:31:47;9.88;93.34
76040;SHT30;64736;50.462;4.850;2022-12-26T07:34:13;9.85;92.92
76040;SHT30;64736;50.462;4.850;2022-12-26T07:36:39;9.93;92.63
76040;SHT30;64736;50.462;4.850;2022-12-26T07:39:07;9.94;92.51
76040;SHT30;64736;50.462;4.850;2022-12-26T07:41:32;9.88;92.65
76040;SHT30;64736;50.462;4.850;2022-12-26T07:44:17;9.91;92.39
76040;SHT30;64736;50.462;4.850;2022-12-26T07:46:43;9.93;92.26
76040;SHT30;64736;50.462;4.850;2022-12-26T07:49:11;9.88;92.21
76040;SHT30;64736;50.462;4.850;2022-12-26T07:51:37;9.90;92.03
76040;SHT30;64736;50.462;4.850;2022-12-26T07:54:03;9.85;91.99
76040;SHT30;64736;50.462;4.850;2022-12-26T07:56:30;9.88;92.02
76040;SHT30;64736;50.462;4.850;2022-12-26T07:58:56;9.87;92.04
76040;SHT30;64736;50.462;4.850;2022-12-26T08:01:23;9.91;91.94
76040;SHT30;64736;50.462;4.850;2022-12-26T08:03:49;9.97;91.57
76040;SHT30;64736;50.462;4.850;2022-12-26T08:06:16;9.93;91.82
76040;SHT30;64736;50.462;4.850;2022-12-26T08:08:42;9.90;91.85
76040;SHT30;64736;50.462;4.850;2022-12-26T08:11:09;9.93;91.30
76040;SHT30;64736;50.462;4.850;2022-12-26T08:13:38;9.99;90.91
76040;SHT30;64736;50.462;4.850;2022-12-26T08:16:05;9.95;91.08
76040;SHT30;64736;50.462;4.850;2022-12-26T08:18:32;9.95;91.23
76040;SHT30;64736;50.462;4.850;2022-12-26T08:20:58;9.94;90.69
76040;SHT30;64736;50.462;4.850;2022-12-26T08:23:24;9.99;90.08
76040;SHT30;64736;50.462;4.850;2022-12-26T08:25:50;10.01;90.16
76040;SHT30;64736;50.462;4.850;2022-12-26T08:28:16;10.04;90.11
76040;SHT30;64736;50.462;4.850;2022-12-26T08:30:42;10.08;89.86
76040;SHT30;64736;50.462;4.850;2022-12-26T08:33:08;10.11;90.14
76040;SHT30;64736;50.462;4.850;2022-12-26T08:35:36;10.14;89.61
76040;SHT30;64736;50.462;4.850;2022-12-26T08:38:02;10.18;89.05
76040;SHT30;64736;50.462;4.850;2022-12-26T08:40:29;10.22;89.35
76040;SHT30;64736;50.462;4.850;2022-12-26T08:42:55;10.23;89.09
76040;SHT30;64736;50.462;4.850;2022-12-26T08:45:20;10.26;88.50
76040;SHT30;64736;50.462;4.850;2022-12-26T08:47:47;10.31;88.03
76040;SHT30;64736;50.462;4.850;2022-12-26T08:50:13;10.31;88.21
76040;SHT30;64736;50.462;4.850;2022-12-26T08:52:38;10.31;87.98
76040;SHT30;64736;50.462;4.850;2022-12-26T08:55:04;10.33;88.40
76040;SHT30;64736;50.462;4.850;2022-12-26T08:57:30;10.32;88.01
76040;SHT30;64736;50.462;4.850;2022-12-26T08:59:56;10.42;87.73
76040;SHT30;64736;50.462;4.850;2022-12-26T09:02:21;10.41;87.88
76040;SHT30;64736;50.462;4.850;2022-12-26T09:04:47;10.43;87.90
76040;SHT30;64736;50.462;4.850;2022-12-26T09:07:13;10.45;87.39
76040;SHT30;64736;50.462;4.850;2022-12-26T09:09:38;10.48;86.99
76040;SHT30;64736;50.462;4.850;2022-12-26T09:12:04;10.50;87.18
76040;SHT30;64736;50.462;4.850;2022-12-26T09:14:31;10.49;86.87
76040;SHT30;64736;50.462;4.850;2022-12-26T09:16:57;10.50;86.91
76040;SHT30;64736;50.462;4.850;2022-12-26T09:19:23;10.49;86.62
76040;SHT30;64736;50.462;4.850;2022-12-26T09:21:49;10.50;86.19
76040;SHT30;64736;50.462;4.850;2022-12-26T09:24:35;10.52;86.29
76040;SHT30;64736;50.462;4.850;2022-12-26T09:27:00;10.57;86.09
76040;SHT30;64736;50.462;4.850;2022-12-26T09:29:26;10.55;86.21
76040;SHT30;64736;50.462;4.850;2022-12-26T09:31:55;10.57;85.49
76040;SHT30;64736;50.462;4.850;2022-12-26T09:34:21;10.63;85.62
76040;SHT30;64736;50.462;4.850;2022-12-26T09:36:46;10.59;85.22
76040;SHT30;64736;50.462;4.850;2022-12-26T09:39:12;10.63;85.56
76040;SHT30;64736;50.462;4.850;2022-12-26T09:49:35;10.62;85.93
76040;SHT30;64736;50.462;4.850;2022-12-26T09:52:08;10.63;85.06
76040;SHT30;64736;50.462;4.850;2022-12-26T09:54:39;10.63;85.01
76040;SHT30;64736;50.462;4.850;2022-12-26T09:57:30;10.64;84.74
76040;SHT30;64736;50.462;4.850;2022-12-26T10:00:03;10.64;84.58
76040;SHT30;64736;50.462;4.850;2022-12-26T10:02:30;10.66;84.67
76040;SHT30;64736;50.462;4.850;2022-12-26T10:04:56;10.67;84.79
76040;SHT30;64736;50.462;4.850;2022-12-26T10:17:58;10.69;84.19
76040;SHT30;64736;50.462;4.850;2022-12-26T10:23:13;10.28;90.84
76040;SHT30;64736;50.462;4.850;2022-12-26T10:25:56;9.98;93.48
76040;SHT30;64736;50.462;4.850;2022-12-26T10:31:12;9.71;94.56
76040;SHT30;64736;50.462;4.850;2022-12-26T10:33:51;9.70;94.92
76040;SHT30;64736;50.462;4.850;2022-12-26T10:36:49;9.74;94.72
76040;SHT30;64736;50.462;4.850;2022-12-26T10:39:27;9.70;94.87
76040;SHT30;64736;50.462;4.850;2022-12-26T10:41:56;9.74;94.40
76040;SHT30;64736;50.462;4.850;2022-12-26T10:44:23;9.80;93.65
76040;SHT30;64736;50.462;4.850;2022-12-26T10:47:12;9.80;93.66
76040;SHT30;64736;50.462;4.850;2022-12-26T10:49:42;9.83;92.77
76040;SHT30;64736;50.462;4.850;2022-12-26T10:52:09;9.85;92.77
76040;SHT30;64736;50.462;4.850;2022-12-26T10:54:36;9.93;92.79
76040;SHT30;64736;50.462;4.850;2022-12-26T10:57:03;9.98;92.35
76040;SHT30;64736;50.462;4.850;2022-12-26T10:59:46;9.97;92.92
76040;SHT30;64736;50.462;4.850;2022-12-26T11:02:21;9.93;93.38
76040;SHT30;64736;50.462;4.850;2022-12-26T11:05:02;9.99;94.11
76040;SHT30;64736;50.462;4.850;2022-12-26T11:07:42;9.91;94.06
76040;SHT30;64736;50.462;4.850;2022-12-26T11:10:19;9.91;94.65
76040;SHT30;64736;50.462;4.850;2022-12-26T11:13:00;9.88;94.25
76040;SHT30;64736;50.462;4.850;2022-12-26T11:15:48;9.83;94.94
76040;SHT30;64736;50.462;4.850;2022-12-26T11:20:43;9.80;95.17
76040;SHT30;64736;50.462;4.850;2022-12-26T11:23:22;9.88;95.03
76040;SHT30;64736;50.462;4.850;2022-12-26T11:25:57;9.90;94.62
76040;SHT30;64736;50.462;4.850;2022-12-26T11:28:27;9.90;94.27
76040;SHT30;64736;50.462;4.850;2022-12-26T11:30:52;9.93;94.88
76040;SHT30;64736;50.462;4.850;2022-12-26T11:33:28;10.08;94.79
76040;SHT30;64736;50.462;4.850;2022-12-26T11:36:04;10.55;92.66
76040;SHT30;64736;50.462;4.850;2022-12-26T11:41:33;10.56;92.87
76040;SHT30;64736;50.462;4.850;2022-12-26T11:46:49;10.29;92.64
76040;SHT30;64736;50.462;4.850;2022-12-26T11:49:33;10.08;93.64
76040;SHT30;64736;50.462;4.850;2022-12-26T11:52:49;9.93;94.59
76040;SHT30;64736;50.462;4.850;2022-12-26T11:54:49;9.77;95.79
76040;SHT30;64736;50.462;4.850;2022-12-26T11:57:36;9.70;96.27
76040;SHT30;64736;50.462;4.850;2022-12-26T12:00:19;9.46;96.75
76040;SHT30;64736;50.462;4.850;2022-12-26T12:02:46;9.01;97.69
76040;SHT30;64736;50.462;4.850;2022-12-26T12:22:29;8.39;99.81
76040;SHT30;64736;50.462;4.850;2022-12-26T12:27:58;8.46;99.79
76040;SHT30;64736;50.462;4.850;2022-12-26T12:38:56;8.60;99.52
76040;SHT30;64736;50.462;4.850;2022-12-26T12:44:49;8.64;99.71
76040;SHT30;64736;50.462;4.850;2022-12-26T12:55:30;8.53;99.07
76040;SHT30;64736;50.462;4.850;2022-12-26T13:00:45;8.44;99.03
76040;SHT30;64736;50.462;4.850;2022-12-26T13:03:31;8.10;97.18
76040;SHT30;64736;50.462;4.850;2022-12-26T13:06:39;8.12;96.99
76040;SHT30;64736;50.462;4.850;2022-12-26T13:09:18;8.09;97.69
76040;SHT30;64736;50.462;4.850;2022-12-26T13:11:55;8.13;97.87
76040;SHT30;64736;50.462;4.850;2022-12-26T13:14:35;8.01;97.52
76040;SHT30;64736;50.462;4.850;2022-12-26T13:17:30;7.86;97.00
76040;SHT30;64736;50.462;4.850;2022-12-26T13:20:12;8.03;97.48
76040;SHT30;64736;50.462;4.850;2022-12-26T13:22:43;7.81;96.38
76040;SHT30;64736;50.462;4.850;2022-12-26T13:25:35;7.61;96.07
76040;SHT30;64736;50.462;4.850;2022-12-26T13:28:06;7.43;96.04
76040;SHT30;64736;50.462;4.850;2022-12-26T13:30:36;7.22;92.59
76040;SHT30;64736;50.462;4.850;2022-12-26T13:33:03;7.17;89.87
76040;SHT30;64736;50.462;4.850;2022-12-26T13:35:55;7.19;91.98
76040;SHT30;64736;50.462;4.850;2022-12-26T13:38:23;7.37;94.63
76040;SHT30;64736;50.462;4.850;2022-12-26T13:40:56;7.33;94.75
76040;SHT30;64736;50.462;4.850;2022-12-26T13:52:22;7.19;94.11
76040;SHT30;64736;50.462;4.850;2022-12-26T14:00:22;7.09;92.59
76040;SHT30;64736;50.462;4.850;2022-12-26T14:03:23;7.05;91.45
76040;SHT30;64736;50.462;4.850;2022-12-26T14:12:02;6.86;92.53
76040;SHT30;64736;50.462;4.850;2022-12-26T14:17:34;6.38;89.68
76040;SHT30;64736;50.462;4.850;2022-12-26T14:20:17;6.61;92.38
76040;SHT30;64736;50.462;4.850;2022-12-26T14:38:49;6.69;90.66
76040;SHT30;64736;50.462;4.850;2022-12-26T14:41:19;6.74;90.94
76040;SHT30;64736;50.462;4.850;2022-12-26T14:51:43;6.72;91.02
76040;SHT30;64736;50.462;4.850;2022-12-26T14:56:50;6.67;91.48
76040;SHT30;64736;50.462;4.850;2022-12-26T14:59:32;6.72;92.30
76040;SHT30;64736;50.462;4.850;2022-12-26T15:07:35;6.61;89.81
76040;SHT30;64736;50.462;4.850;2022-12-26T15:36:09;6.58;84.57
76040;SHT30;64736;50.462;4.850;2022-12-26T15:41:46;6.55;84.61
76040;SHT30;64736;50.462;4.850;2022-12-26T15:47:17;6.55;84.24
76040;SHT30;64736;50.462;4.850;2022-12-26T15:59:03;6.45;82.88
76040;SHT30;64736;50.462;4.850;2022-12-26T16:00:54;6.42;82.87
76040;SHT30;64736;50.462;4.850;2022-12-26T16:03:36;6.36;83.23
76040;SHT30;64736;50.462;4.850;2022-12-26T16:06:39;6.30;83.43
76040;SHT30;64736;50.462;4.850;2022-12-26T16:11:53;6.21;83.63
76040;SHT30;64736;50.462;4.850;2022-12-26T16:14:27;6.10;83.15
76040;SHT30;64736;50.462;4.850;2022-12-26T16:16:53;6.07;83.51
76040;SHT30;64736;50.462;4.850;2022-12-26T16:19:22;6.02;83.32
76040;SHT30;64736;50.462;4.850;2022-12-26T16:21:56;5.99;83.76
76040;SHT30;64736;50.462;4.850;2022-12-26T16:24:43;6.00;84.03
76040;SHT30;64736;50.462;4.850;2022-12-26T16:27:16;6.03;83.98
76040;SHT30;64736;50.462;4.850;2022-12-26T16:29:51;6.02;83.62
76040;SHT30;64736;50.462;4.850;2022-12-26T16:32:28;6.03;83.12
76040;SHT30;64736;50.462;4.850;2022-12-26T16:34:56;6.03;83.46
76040;SHT30;64736;50.462;4.850;2022-12-26T16:37:24;5.98;83.49
76040;SHT30;64736;50.462;4.850;2022-12-26T16:45:51;5.62;82.98
76040;SHT30;64736;50.462;4.850;2022-12-26T16:48:22;5.58;83.31
76040;SHT30;64736;50.462;4.850;2022-12-26T16:53:23;5.48;83.53
76040;SHT30;64736;50.462;4.850;2022-12-26T16:58:35;5.40;83.31
76040;SHT30;64736;50.462;4.850;2022-12-26T17:01:19;5.37;82.44
76040;SHT30;64736;50.462;4.850;2022-12-26T17:04:03;5.37;81.70
76040;SHT30;64736;50.462;4.850;2022-12-26T17:06:40;5.34;82.10
76040;SHT30;64736;50.462;4.850;2022-12-26T17:09:14;5.35;81.77
76040;SHT30;64736;50.462;4.850;2022-12-26T17:14:44;5.19;81.83
76040;SHT30;64736;50.462;4.850;2022-12-26T17:19:48;5.09;83.26
76040;SHT30;64736;50.462;4.850;2022-12-26T17:24:41;4.97;83.66
76040;SHT30;64736;50.462;4.850;2022-12-26T17:27:17;4.94;83.64
76040;SHT30;64736;50.462;4.850;2022-12-26T17:30:00;4.92;83.43
76040;SHT30;64736;50.462;4.850;2022-12-26T17:32:35;4.89;84.21
76040;SHT30;64736;50.462;4.850;2022-12-26T17:35:22;4.84;84.18
76040;SHT30;64736;50.462;4.850;2022-12-26T17:37:55;4.80;83.75
76040;SHT30;64736;50.462;4.850;2022-12-26T17:40:34;4.77;83.67
76040;SHT30;64736;50.462;4.850;2022-12-26T17:43:50;4.72;83.54
76040;SHT30;64736;50.462;4.850;2022-12-26T17:45:51;4.65;83.09
76040;SHT30;64736;50.462;4.850;2022-12-26T17:48:17;4.66;83.24
76040;SHT30;64736;50.462;4.850;2022-12-26T17:50:47;4.65;82.76
76040;SHT30;64736;50.462;4.850;2022-12-26T17:53:25;4.63;82.12
76040;SHT30;64736;50.462;4.850;2022-12-26T17:55:54;4.58;81.34
76040;SHT30;64736;50.462;4.850;2022-12-26T17:58:21;4.59;81.11
76040;SHT30;64736;50.462;4.850;2022-12-26T18:00:47;4.58;81.43
76040;SHT30;64736;50.462;4.850;2022-12-26T18:03:13;4.55;81.77
76040;SHT30;64736;50.462;4.850;2022-12-26T18:05:40;4.52;81.40
76040;SHT30;64736;50.462;4.850;2022-12-26T18:08:06;4.51;81.94
76040;SHT30;64736;50.462;4.850;2022-12-26T18:10:34;4.44;82.10
76040;SHT30;64736;50.462;4.850;2022-12-26T18:13:01;4.46;82.45
76040;SHT30;64736;50.462;4.850;2022-12-26T18:15:28;4.40;81.66
76040;SHT30;64736;50.462;4.850;2022-12-26T18:17:57;4.38;81.51
76040;SHT30;64736;50.462;4.850;2022-12-26T18:20:26;4.33;81.56
76040;SHT30;64736;50.462;4.850;2022-12-26T18:22:52;4.27;82.61
76040;SHT30;64736;50.462;4.850;2022-12-26T18:25:20;4.28;81.91
76040;SHT30;64736;50.462;4.850;2022-12-26T18:27:46;4.27;81.30
76040;SHT30;64736;50.462;4.850;2022-12-26T18:30:21;4.28;81.92
76040;SHT30;64736;50.462;4.850;2022-12-26T18:32:48;4.30;81.56
76040;SHT30;64736;50.462;4.850;2022-12-26T18:35:15;4.30;81.05
76040;SHT30;64736;50.462;4.850;2022-12-26T18:37:44;4.33;81.64
76040;SHT30;64736;50.462;4.850;2022-12-26T18:40:50;4.28;81.36
76040;SHT30;64736;50.462;4.850;2022-12-26T18:43:17;4.25;81.74
76040;SHT30;64736;50.462;4.850;2022-12-26T18:45:43;4.25;81.93
76040;SHT30;64736;50.462;4.850;2022-12-26T18:48:14;4.25;82.38
76040;SHT30;64736;50.462;4.850;2022-12-26T18:50:41;4.24;81.98
76040;SHT30;64736;50.462;4.850;2022-12-26T18:53:07;4.22;82.22
76040;SHT30;64736;50.462;4.850;2022-12-26T18:55:33;4.22;82.32
76040;SHT30;64736;50.462;4.850;2022-12-26T18:57:58;4.24;82.20
76040;SHT30;64736;50.462;4.850;2022-12-26T19:00:24;4.21;82.20
76040;SHT30;64736;50.462;4.850;2022-12-26T19:02:51;4.20;82.60
76040;SHT30;64736;50.462;4.850;2022-12-26T19:05:28;4.18;83.85
76040;SHT30;64736;50.462;4.850;2022-12-26T19:07:56;4.20;82.31
76040;SHT30;64736;50.462;4.850;2022-12-26T19:10:25;4.21;82.44
76040;SHT30;64736;50.462;4.850;2022-12-26T19:12:51;4.21;82.22
76040;SHT30;64736;50.462;4.850;2022-12-26T19:15:17;4.17;82.74
76040;SHT30;64736;50.462;4.850;2022-12-26T19:17:43;4.15;82.42
76040;SHT30;64736;50.462;4.850;2022-12-26T19:20:18;4.17;81.88
76040;SHT30;64736;50.462;4.850;2022-12-26T19:22:45;4.14;82.07
76040;SHT30;64736;50.462;4.850;2022-12-26T19:25:12;4.13;82.60
76040;SHT30;64736;50.462;4.850;2022-12-26T19:27:38;4.11;82.04
76040;SHT30;64736;50.462;4.850;2022-12-26T19:30:04;4.14;81.79
76040;SHT30;64736;50.462;4.850;2022-12-26T19:32:30;4.13;82.62
76040;SHT30;64736;50.462;4.850;2022-12-26T19:34:56;4.21;82.03
76040;SHT30;64736;50.462;4.850;2022-12-26T19:37:22;4.28;81.93
76040;SHT30;64736;50.462;4.850;2022-12-26T19:39:48;4.37;81.86
76040;SHT30;64736;50.462;4.850;2022-12-26T19:42:15;4.40;81.88
76040;SHT30;64736;50.462;4.850;2022-12-26T19:44:40;4.38;81.82
76040;SHT30;64736;50.462;4.850;2022-12-26T19:47:06;4.28;82.85
76040;SHT30;64736;50.462;4.850;2022-12-26T19:49:32;4.24;82.80
76040;SHT30;64736;50.462;4.850;2022-12-26T19:51:57;4.20;82.41
76040;SHT30;64736;50.462;4.850;2022-12-26T19:54:23;4.14;82.25
76040;SHT30;64736;50.462;4.850;2022-12-26T19:56:50;4.14;82.03
76040;SHT30;64736;50.462;4.850;2022-12-26T19:59:16;4.14;82.13
76040;SHT30;64736;50.462;4.850;2022-12-26T20:01:43;4.13;82.18
76040;SHT30;64736;50.462;4.850;2022-12-26T20:04:08;4.14;81.44
76040;SHT30;64736;50.462;4.850;2022-12-26T20:06:36;4.20;81.70
76040;SHT30;64736;50.462;4.850;2022-12-26T20:09:06;4.15;82.13
76040;SHT30;64736;50.462;4.850;2022-12-26T20:11:36;4.15;82.70
76040;SHT30;64736;50.462;4.850;2022-12-26T20:14:04;4.14;82.36
76040;SHT30;64736;50.462;4.850;2022-12-26T20:16:31;4.14;82.48